Latest Weather Observations for Coonamble

IDN60801

Issued at 6:23 pm EST Saturday 9 May 2026 (issued every 10 minutes, with the page automatically refreshed every 10 minutes)

About weather observations | Map of weather stations | Latest weather observations for NSW | Other Formats
Station Details ID: 051161 Name: COONAMBLE AIRPORT AWS Lat: -30.98 Lon: 148.38 Height: 181.3 m
Data from the previous 72 hours. | See also: Recent months at Coonamble
Date/Time
EST
Temp
°C
App
Temp
°C
Dew
Point
°C
Rel
Hum
%
Delta-T
°C
Wind Press
QNH
hPa
Press
MSL
hPa
Rain since
9am
mm
Dir  Spd
km/h
Gust
km/h
Spd
kts
Gust
kts
09/06:00pm 16.2 13.5 5.5 49 5.2 SSW 9 13 5 7 1023.9 1023.7 0.0
09/05:30pm 18.0 14.9 5.6 44 6.1 SW 11 13 6 7 1023.8 1023.6 0.0
09/05:00pm 20.3 17.2 5.5 38 7.3 SSW 11 15 6 8 1023.4 1023.2 0.0
09/04:30pm 21.2 17.6 5.1 35 8.0 S 13 15 7 8 1023.0 1022.9 0.0
09/04:00pm 21.6 18.0 5.1 34 8.2 SSW 13 19 7 10 1022.9 1022.8 0.0
09/03:30pm 21.8 18.9 4.8 33 8.4 SSW 9 17 5 9 1023.0 1022.9 0.0
09/03:00pm 22.0 18.8 5.0 33 8.4 SSW 11 20 6 11 1022.9 1022.8 0.0
09/02:30pm 21.7 18.9 5.2 34 8.2 W 9 15 5 8 1022.9 1022.8 0.0
09/02:00pm 21.7 18.9 5.2 34 8.2 WNW 9 13 5 7 1023.0 1022.9 0.0
09/01:30pm 21.5 19.2 5.0 34 8.2 SW 6 13 3 7 1023.3 1023.1 0.0
09/01:00pm 20.8 18.3 4.8 35 7.9 E 7 13 4 7 1023.6 1023.4 0.0
09/12:30pm 20.1 17.0 5.7 39 7.2 SSW 11 17 6 9 1024.1 1023.9 0.0
09/12:00pm 19.8 17.2 6.2 41 6.8 SSW 9 17 5 9 1024.6 1024.5 0.0
09/11:30am 19.3 16.2 5.7 41 6.8 S 11 19 6 10 1025.1 1025.0 0.0
09/11:00am 18.5 15.3 7.0 47 5.8 S 13 19 7 10 1025.4 1025.3 0.0
09/10:30am 17.9 13.6 7.9 52 5.1 SSE 20 28 11 15 1025.6 1025.5 0.0
09/10:00am 16.8 12.6 8.2 57 4.4 S 20 28 11 15 1025.8 1025.7 0.0
09/09:30am 15.4 11.2 8.2 62 3.7 S 20 26 11 14 1025.8 1025.7 0.0
09/09:00am 14.4 10.3 8.8 69 2.8 S 20 24 11 13 1025.8 1025.7 0.0
09/08:30am 12.5 9.0 8.6 77 2.0 S 17 20 9 11 1025.6 1025.5 0.0
09/08:00am 10.6 7.2 7.8 83 1.4 S 15 19 8 10 1025.3 1025.2 0.0
09/07:30am 9.4 6.3 7.3 87 1.0 S 13 19 7 10 1024.8 1024.7 0.0
09/07:00am 7.9 4.2 6.5 91 0.6 SSW 15 17 8 9 1024.6 1024.5 0.0
09/06:30am 7.6 4.3 6.2 91 0.6 S 13 15 7 8 1024.5 1024.4 0.0
09/06:00am 7.4 4.0 6.0 91 0.6 SSW 13 15 7 8 1024.3 1024.2 0.0
09/05:30am 7.3 3.9 5.9 91 0.6 SSW 13 15 7 8 1024.1 1023.9 0.0
09/05:00am 6.9 3.8 5.5 91 0.6 SSW 11 13 6 7 1024.0 1023.8 0.0
09/04:30am 7.6 4.6 5.9 89 0.8 SSW 11 13 6 7 1023.9 1023.7 0.0
09/04:00am 7.6 4.5 5.7 88 0.9 SSW 11 13 6 7 1023.8 1023.6 0.0
09/03:30am 8.1 5.1 6.1 87 0.9 S 11 15 6 8 1024.0 1023.8 0.0
09/03:00am 8.3 5.0 6.3 87 0.9 SSW 13 15 7 8 1024.0 1023.8 0.0
09/02:30am 8.5 5.5 6.0 84 1.2 SSW 11 15 6 8 1024.1 1023.9 0.0
09/02:00am 9.1 5.8 6.4 83 1.3 SSW 13 15 7 8 1024.1 1023.9 0.0
09/01:30am 8.6 5.6 5.9 83 1.2 SSW 11 13 6 7 1024.2 1024.1 0.0
09/01:00am 8.0 4.5 5.3 83 1.2 SSW 13 15 7 8 1024.3 1024.2 0.0
09/12:30am 7.7 4.9 5.2 84 1.1 SW 9 11 5 6 1024.6 1024.5 0.0
09/12:00am 8.1 5.9 5.2 82 1.3 SW 6 7 3 4 1024.6 1024.5 0.0
 
Date/Time
EST
Temp
°C
App
Temp
°C
Dew
Point
°C
Rel
Hum
%
Delta-T
°C
Wind Press
QNH
hPa
Press
MSL
hPa
Rain since
9am
mm
Dir  Spd
km/h
Gust
km/h
Spd
kts
Gust
kts
08/11:30pm 8.4 6.2 5.2 80 1.4 SW 6 7 3 4 1024.6 1024.5 0.0
08/11:00pm 9.0 6.6 5.4 78 1.6 SSW 7 9 4 5 1024.6 1024.5 0.0
08/10:30pm 9.8 7.1 5.8 76 1.9 SW 9 11 5 6 1024.7 1024.6 0.0
08/10:00pm 10.7 7.7 5.9 72 2.2 SW 11 13 6 7 1024.7 1024.6 0.0
08/09:30pm 11.1 7.7 6.0 71 2.4 SSW 13 15 7 8 1024.5 1024.4 0.0
08/09:00pm 11.9 8.6 6.2 68 2.7 SSW 13 15 7 8 1024.4 1024.3 0.0
08/08:30pm 12.7 9.4 6.3 65 3.1 SSW 13 15 7 8 1024.5 1024.4 0.0
08/08:00pm 13.6 10.4 6.7 63 3.3 SSW 13 13 7 7 1024.5 1024.4 0.0
08/07:30pm 13.8 10.6 6.7 62 3.5 SSW 13 19 7 10 1024.2 1024.1 0.0
08/07:00pm 13.9 10.2 6.5 61 3.6 SSW 15 20 8 11 1024.1 1023.9 0.0
08/06:30pm 13.8 10.5 6.2 60 3.7 SSW 13 17 7 9 1023.8 1023.6 0.0
08/06:00pm 14.7 10.1 5.8 55 4.3 SW 19 22 10 12 1023.3 1023.1 0.0
08/05:30pm 15.6 11.0 5.8 52 4.7 SW 19 22 10 12 1022.8 1022.7 0.0
08/05:00pm 16.7 11.5 5.6 48 5.4 SW 22 30 12 16 1022.5 1022.4 0.0
08/04:30pm 17.6 12.4 5.5 45 5.9 SW 22 30 12 16 1022.4 1022.3 0.0
08/04:00pm 17.9 11.9 5.5 44 6.0 SW 26 35 14 19 1022.4 1022.3 0.0
08/03:30pm 18.5 12.9 5.4 42 6.4 SW 24 35 13 19 1022.5 1022.4 0.0
08/03:00pm 18.5 12.5 5.4 42 6.4 SW 26 37 14 20 1022.4 1022.3 0.0
08/02:30pm 18.2 12.5 4.7 41 6.5 SW 24 37 13 20 1022.7 1022.6 0.0
08/02:00pm 17.8 12.4 4.4 41 6.4 SW 22 37 12 20 1022.8 1022.7 0.0
08/01:30pm 18.2 12.9 5.1 42 6.4 SW 22 35 12 19 1023.2 1023.0 0.0
08/01:00pm 17.3 11.8 3.9 41 6.3 SW 22 32 12 17 1023.7 1023.5 0.0
08/12:30pm 16.9 11.5 4.3 43 6.0 SSW 22 33 12 18 1024.1 1023.9 0.0
08/12:00pm 16.7 10.8 4.1 43 5.9 SSW 24 35 13 19 1024.6 1024.5 0.0
08/11:30am 15.9 10.4 4.0 45 5.6 SSW 22 32 12 17 1025.0 1024.9 0.0
08/11:00am 14.7 8.7 3.5 47 5.1 SSW 24 32 13 17 1025.2 1025.1 0.0
08/10:30am 14.1 8.9 3.3 48 4.9 SSW 20 30 11 16 1025.3 1025.2 0.0
08/10:00am 13.1 7.5 3.2 51 4.4 SSW 22 30 12 16 1025.7 1025.6 0.0
08/09:30am 12.3 7.1 2.7 52 4.2 SSW 19 24 10 13 1025.8 1025.7 0.0
08/09:00am 10.8 6.0 2.4 56 3.6 SSW 17 24 9 13 1025.8 1025.7 0.0
08/08:30am 8.9 4.0 1.8 61 3.0 SW 17 24 9 13 1025.8 1025.7 0.0
08/08:00am 7.3 3.1 1.4 66 2.4 SW 13 17 7 9 1025.7 1025.6 0.0
08/07:30am 5.7 1.8 1.1 72 1.8 SW 11 13 6 7 1025.5 1025.4 0.0
08/07:00am 3.9 -0.1 0.6 79 1.3 SW 11 13 6 7 1025.3 1025.2 0.0
08/06:30am 3.0 -1.1 -0.1 80 1.2 SW 11 13 6 7 1025.1 1025.0 0.0
08/06:00am 3.5 -0.9 0.2 79 1.2 SW 13 15 7 8 1024.9 1024.8 0.0
08/05:30am 4.5 0.1 0.3 74 1.6 SW 13 15 7 8 1024.6 1024.5 0.0
08/05:00am 4.5 0.1 0.3 74 1.6 SW 13 17 7 9 1024.7 1024.6 0.0
08/04:30am 4.8 0.7 -0.2 70 1.9 SSW 11 13 6 7 1024.8 1024.7 0.0
08/04:00am 5.4 0.9 0.0 68 2.1 SW 13 17 7 9 1024.7 1024.6 0.0
08/03:30am 5.9 1.0 -0.4 64 2.4 SW 15 19 8 10 1024.9 1024.8 0.0
08/03:00am 5.9 1.4 0.0 66 2.3 SW 13 17 7 9 1024.9 1024.8 0.0
08/02:30am 5.9 1.0 -0.6 63 2.5 SW 15 19 8 10 1025.0 1024.9 0.0
08/02:00am 6.3 1.4 -0.4 62 2.6 SW 15 19 8 10 1025.1 1025.0 0.0
08/01:30am 5.0 0.5 -0.2 69 2.0 SW 13 19 7 10 1025.1 1025.0 0.0
08/01:00am 3.6 -1.0 -0.8 73 1.6 WSW 13 17 7 9 1025.1 1025.0 0.0
08/12:30am 4.2 0.0 -1.0 69 1.9 SW 11 15 6 8 1025.2 1025.1 0.0
08/12:00am 4.5 -0.1 -0.9 68 2.0 SW 13 15 7 8 1025.2 1025.1 0.0
 
Date/Time
EST
Temp
°C
App
Temp
°C
Dew
Point
°C
Rel
Hum
%
Delta-T
°C
Wind Press
QNH
hPa
Press
MSL
hPa
Rain since
9am
mm
Dir  Spd
km/h
Gust
km/h
Spd
kts
Gust
kts
07/11:30pm 4.2 0.0 -1.0 69 1.9 SW 11 13 6 7 1025.3 1025.2 0.0
07/11:00pm 3.7 -0.9 -1.4 69 1.9 WSW 13 17 7 9 1025.5 1025.4 0.0
07/10:30pm 5.1 0.8 -1.3 63 2.4 SW 11 15 6 8 1025.5 1025.4 0.0
07/10:00pm 5.3 0.7 -1.4 62 2.5 SW 13 15 7 8 1025.4 1025.3 0.0
07/09:30pm 5.9 1.2 -1.5 59 2.8 SW 13 15 7 8 1025.4 1025.3 0.0
07/09:00pm 6.6 1.9 -1.5 56 3.0 SW 13 13 7 7 1025.3 1025.2 0.0
07/08:30pm 8.4 3.7 -1.7 49 3.9 SW 13 17 7 9 1025.0 1024.9 0.0
07/08:00pm 9.2 4.1 -1.8 46 4.2 SW 15 20 8 11 1024.8 1024.7 0.0
07/07:30pm 10.0 4.5 -2.3 42 4.7 SW 17 20 9 11 1024.5 1024.4 0.0
07/07:00pm 10.0 4.8 -2.6 41 4.8 SW 15 19 8 10 1024.1 1023.9 0.0
07/06:30pm 11.4 4.8 -3.1 36 5.6 SW 22 28 12 15 1023.7 1023.5 0.0
07/06:00pm 12.0 5.1 -3.0 35 5.8 SW 24 33 13 18 1023.3 1023.1 0.0
07/05:30pm 12.3 5.8 -2.7 35 5.9 SW 22 28 12 15 1022.8 1022.7 0.0
07/05:00pm 13.5 5.4 -2.8 32 6.4 SW 30 43 16 23 1022.3 1022.2 0.0
07/04:30pm 14.2 5.5 -3.1 30 6.8 SW 33 43 18 23 1022.1 1022.0 0.0
07/04:03pm 15.0 6.4 -2.9 29 7.2 SW 33 52 18 28 1021.9 1021.8 0.0
07/04:00pm 14.7 5.7 -3.1 29 7.0 SW 35 52 19 28 1021.9 1021.8 0.0
07/03:30pm 15.6 7.2 -2.3 29 7.3 SW 32 41 17 22 1021.8 1021.7 0.0
07/03:00pm 15.1 6.8 -1.5 32 6.8 SW 32 43 17 23 1021.9 1021.8 0.0
07/02:30pm 15.2 6.3 -2.2 30 7.1 SSW 35 46 19 25 1021.8 1021.7 0.0
07/02:00pm 15.5 6.6 -2.0 30 7.2 SSW 35 48 19 26 1021.6 1021.5 0.0
07/01:41pm 16.0 7.2 -1.1 31 7.2 SW 35 54 19 29 1021.6 1021.5 0.0
07/01:30pm 15.5 6.3 -1.5 31 7.1 SW 37 52 20 28 1021.7 1021.6 0.0
07/01:19pm 15.9 7.5 -1.2 31 7.2 SW 33 52 18 28 1021.5 1021.4 0.0
07/01:00pm 16.4 8.4 0.1 33 7.0 SSW 32 41 17 22 1021.5 1021.4 0.0
07/12:30pm 15.8 8.1 0.0 34 6.8 SSW 30 43 16 23 1021.8 1021.7 0.0
07/12:00pm 15.7 6.3 -0.1 34 6.7 SW 39 52 21 28 1021.9 1021.8 0.0
07/11:30am 15.2 7.7 4.6 49 5.0 SW 33 48 18 26 1021.9 1021.8 0.0
07/11:00am 15.0 8.5 6.3 56 4.2 SW 30 41 16 22 1022.1 1022.0 0.0
07/10:30am 14.0 7.3 7.5 65 3.2 SW 32 46 17 25 1022.1 1022.0 0.0
07/10:00am 14.3 7.0 7.1 62 3.5 SSW 35 46 19 25 1021.9 1021.8 0.0
07/09:30am 14.3 8.4 7.4 63 3.4 SSW 28 35 15 19 1021.6 1021.5 0.0
07/09:00am 13.1 7.1 7.1 67 2.9 SW 28 39 15 21 1021.6 1021.5 0.0
07/08:30am 11.3 6.9 7.6 78 1.8 SW 20 26 11 14 1021.4 1021.3 0.0
07/08:00am 9.6 6.6 7.7 88 0.9 WSW 13 17 7 9 1020.9 1020.8 0.0
07/07:30am 7.8 5.4 7.2 96 0.3 WSW 9 11 5 6 1020.5 1020.4 0.0
07/07:00am 5.8 3.4 5.2 96 0.3 WSW 7 9 4 5 1020.3 1020.2 0.0
07/06:30am 5.5 2.6 4.8 95 0.3 WSW 9 11 5 6 1020.0 1019.9 0.0
07/06:00am 5.5 2.6 4.8 95 0.3 WSW 9 11 5 6 1019.8 1019.7 0.0
07/05:30am 5.4 2.5 4.4 93 0.4 SW 9 9 5 5 1019.5 1019.4 0.0
07/05:00am 6.2 3.0 5.2 93 0.4 SW 11 13 6 7 1019.3 1019.1 0.0
07/04:30am 6.6 3.8 5.2 91 0.6 SW 9 11 5 6 1019.2 1019.0 0.0
07/04:00am 7.4 5.1 5.9 90 0.7 SW 7 9 4 5 1019.2 1019.0 0.0
07/03:30am 7.3 5.1 5.3 87 0.9 SW 6 7 3 4 1019.3 1019.1 0.0
07/03:00am 8.7 6.2 6.5 86 1.0 SW 9 13 5 7 1019.3 1019.1 0.0
07/02:30am 9.8 6.6 6.9 82 1.4 SSW 13 19 7 10 1019.4 1019.2 0.0
07/02:00am 10.4 6.9 7.1 80 1.6 SSW 15 19 8 10 1019.6 1019.5 0.0
07/01:30am 10.8 7.0 7.5 80 1.6 SSW 17 22 9 12 1019.6 1019.5 0.0
07/01:00am 11.3 7.1 7.4 77 1.9 SSW 19 26 10 14 1019.5 1019.4 0.0
07/12:30am 11.7 7.9 7.4 75 2.1 SSW 17 20 9 11 1019.5 1019.4 0.0
07/12:00am 12.2 8.4 7.5 73 2.3 SSW 17 22 9 12 1019.4 1019.2 0.0
 
Date/Time
EST
Temp
°C
App
Temp
°C
Dew
Point
°C
Rel
Hum
%
Delta-T
°C
Wind Press
QNH
hPa
Press
MSL
hPa
Rain since
9am
mm
Dir  Spd
km/h
Gust
km/h
Spd
kts
Gust
kts
06/11:30pm 12.9 8.7 7.6 70 2.6 SSW 19 24 10 13 1019.3 1019.1 0.0
06/11:00pm 12.9 8.7 7.4 69 2.7 SW 19 22 10 12 1019.3 1019.1 0.0
06/10:30pm 12.3 8.8 7.2 71 2.5 SW 15 19 8 10 1019.5 1019.4 0.0
06/10:00pm 11.2 8.1 7.1 76 2.0 SW 13 15 7 8 1019.7 1019.6 0.0
06/09:30pm 12.1 8.9 6.8 70 2.6 SW 13 17 7 9 1019.6 1019.5 0.0
06/09:00pm 13.5 10.0 7.3 66 3.0 SW 15 19 8 10 1019.4 1019.2 0.0
06/08:30pm 12.9 9.3 6.9 67 2.9 SW 15 17 8 9 1019.4 1019.2 0.0
06/08:00pm 13.4 9.5 7.0 65 3.1 SW 17 19 9 10 1019.2 1019.0 0.0
06/07:30pm 13.8 9.9 6.9 63 3.4 WSW 17 17 9 9 1019.0 1018.8 0.0
06/07:00pm 14.5 10.9 6.8 60 3.8 WSW 15 17 8 9 1018.6 1018.4 0.0
06/06:30pm 15.6 12.4 6.9 56 4.3 WSW 13 15 7 8 1018.3 1018.1 0.0

Other formats

Comma delimited format used in spreadsheet applications
http://www.bom.gov.au/fwo/IDN60801/IDN60801.95718.axf

JavaScript Object Notation format (JSON) in row-major order
http://www.bom.gov.au/fwo/IDN60801/IDN60801.95718.json

Data quality

Most of these data are generated automatically and are frequently updated. Quality checks on data are not normally performed. It is possible for incorrect values to appear. Refer to information at About Latest Weather Observations and please check the disclaimer before using these data.